sensor_id;sensor_type;location;lat;lon;timestamp;temperature;humidity
7204;DHT22;3643;52.460;13.322;2023-03-02T00:01:39;0.30;99.90
7204;DHT22;3643;52.460;13.322;2023-03-02T00:04:13;0.30;99.90
7204;DHT22;3643;52.460;13.322;2023-03-02T00:06:44;0.20;99.90
7204;DHT22;3643;52.460;13.322;2023-03-02T00:09:12;0.20;99.90
7204;DHT22;3643;52.460;13.322;2023-03-02T00:11:40;0.20;99.90
7204;DHT22;3643;52.460;13.322;2023-03-02T00:14:08;0.20;99.90
7204;DHT22;3643;52.460;13.322;2023-03-02T00:16:37;0.20;99.90
7204;DHT22;3643;52.460;13.322;2023-03-02T00:19:06;0.20;99.90
7204;DHT22;3643;52.460;13.322;2023-03-02T00:21:35;0.20;99.90
7204;DHT22;3643;52.460;13.322;2023-03-02T00:24:06;0.10;99.90
7204;DHT22;3643;52.460;13.322;2023-03-02T00:26:35;0.10;99.90
7204;DHT22;3643;52.460;13.322;2023-03-02T00:29:03;0.10;99.90
7204;DHT22;3643;52.460;13.322;2023-03-02T00:31:32;0.10;99.90
7204;DHT22;3643;52.460;13.322;2023-03-02T00:34:01;0.00;99.90
7204;DHT22;3643;52.460;13.322;2023-03-02T00:36:31;0.00;99.90
7204;DHT22;3643;52.460;13.322;2023-03-02T00:38:59;0.00;99.90
7204;DHT22;3643;52.460;13.322;2023-03-02T00:41:30;0.30;99.90
7204;DHT22;3643;52.460;13.322;2023-03-02T00:43:59;0.00;99.90
7204;DHT22;3643;52.460;13.322;2023-03-02T00:46:27;0.00;99.90
7204;DHT22;3643;52.460;13.322;2023-03-02T00:48:56;0.00;99.90
7204;DHT22;3643;52.460;13.322;2023-03-02T00:51:25;-0.10;99.90
7204;DHT22;3643;52.460;13.322;2023-03-02T00:53:53;-0.10;99.90
7204;DHT22;3643;52.460;13.322;2023-03-02T00:56:22;0.00;99.90
7204;DHT22;3643;52.460;13.322;2023-03-02T00:58:52;-0.10;99.90
7204;DHT22;3643;52.460;13.322;2023-03-02T01:01:20;-0.10;99.90
7204;DHT22;3643;52.460;13.322;2023-03-02T01:03:49;-0.10;99.90
7204;DHT22;3643;52.460;13.322;2023-03-02T01:06:19;-0.10;99.90
7204;DHT22;3643;52.460;13.322;2023-03-02T01:08:48;-0.20;99.90
7204;DHT22;3643;52.460;13.322;2023-03-02T01:11:20;-0.20;99.90
7204;DHT22;3643;52.460;13.322;2023-03-02T01:13:50;-0.20;99.90
7204;DHT22;3643;52.460;13.322;2023-03-02T01:16:19;-0.20;99.90
7204;DHT22;3643;52.460;13.322;2023-03-02T01:18:47;-0.10;99.90
7204;DHT22;3643;52.460;13.322;2023-03-02T01:21:16;-0.10;99.90
7204;DHT22;3643;52.460;13.322;2023-03-02T01:23:44;0.80;99.90
7204;DHT22;3643;52.460;13.322;2023-03-02T01:26:12;-0.20;99.90
7204;DHT22;3643;52.460;13.322;2023-03-02T01:28:41;-0.10;99.90
7204;DHT22;3643;52.460;13.322;2023-03-02T01:31:10;0.00;99.90
7204;DHT22;3643;52.460;13.322;2023-03-02T01:33:39;0.00;99.90
7204;DHT22;3643;52.460;13.322;2023-03-02T01:36:07;-0.10;99.90
7204;DHT22;3643;52.460;13.322;2023-03-02T01:38:35;-0.10;99.90
7204;DHT22;3643;52.460;13.322;2023-03-02T01:41:04;-0.10;99.90
7204;DHT22;3643;52.460;13.322;2023-03-02T01:43:33;-0.10;99.90
7204;DHT22;3643;52.460;13.322;2023-03-02T01:46:02;-0.10;99.90
7204;DHT22;3643;52.460;13.322;2023-03-02T01:48:44;-0.20;99.90
7204;DHT22;3643;52.460;13.322;2023-03-02T01:51:16;-0.20;99.90
7204;DHT22;3643;52.460;13.322;2023-03-02T01:53:46;-0.20;99.90
7204;DHT22;3643;52.460;13.322;2023-03-02T01:56:17;-0.20;99.90
7204;DHT22;3643;52.460;13.322;2023-03-02T01:58:51;-0.20;99.90
7204;DHT22;3643;52.460;13.322;2023-03-02T02:01:21;-0.20;99.90
7204;DHT22;3643;52.460;13.322;2023-03-02T02:03:51;-0.20;99.90
7204;DHT22;3643;52.460;13.322;2023-03-02T02:06:23;-0.20;99.90
7204;DHT22;3643;52.460;13.322;2023-03-02T02:08:55;-0.20;99.90
7204;DHT22;3643;52.460;13.322;2023-03-02T02:11:25;-0.20;99.90
7204;DHT22;3643;52.460;13.322;2023-03-02T02:13:57;-0.20;99.90
7204;DHT22;3643;52.460;13.322;2023-03-02T02:16:26;-0.20;99.90
7204;DHT22;3643;52.460;13.322;2023-03-02T02:18:58;-0.20;99.90
7204;DHT22;3643;52.460;13.322;2023-03-02T02:21:27;-0.20;99.90
7204;DHT22;3643;52.460;13.322;2023-03-02T02:24:04;-0.30;99.90
7204;DHT22;3643;52.460;13.322;2023-03-02T02:26:38;-0.30;99.90
7204;DHT22;3643;52.460;13.322;2023-03-02T02:29:11;-0.30;99.90
7204;DHT22;3643;52.460;13.322;2023-03-02T02:31:44;-0.20;99.90
7204;DHT22;3643;52.460;13.322;2023-03-02T02:34:18;-0.20;99.90
7204;DHT22;3643;52.460;13.322;2023-03-02T02:36:50;-0.20;99.90
7204;DHT22;3643;52.460;13.322;2023-03-02T02:39:23;-0.20;99.90
7204;DHT22;3643;52.460;13.322;2023-03-02T02:41:58;-0.20;99.90
7204;DHT22;3643;52.460;13.322;2023-03-02T02:44:27;-0.20;99.90
7204;DHT22;3643;52.460;13.322;2023-03-02T02:46:56;-0.30;99.90
7204;DHT22;3643;52.460;13.322;2023-03-02T02:49:29;-0.30;99.90
7204;DHT22;3643;52.460;13.322;2023-03-02T02:51:59;-0.30;99.90
7204;DHT22;3643;52.460;13.322;2023-03-02T02:54:29;-0.30;99.90
7204;DHT22;3643;52.460;13.322;2023-03-02T02:57:02;-0.30;99.90
7204;DHT22;3643;52.460;13.322;2023-03-02T02:59:32;-0.30;99.90
7204;DHT22;3643;52.460;13.322;2023-03-02T03:02:03;-0.40;99.90
7204;DHT22;3643;52.460;13.322;2023-03-02T03:04:32;-0.40;99.90
7204;DHT22;3643;52.460;13.322;2023-03-02T03:07:03;-0.40;99.90
7204;DHT22;3643;52.460;13.322;2023-03-02T03:09:32;-0.40;99.90
7204;DHT22;3643;52.460;13.322;2023-03-02T03:12:07;-0.40;99.90
7204;DHT22;3643;52.460;13.322;2023-03-02T03:14:39;-0.50;99.90
7204;DHT22;3643;52.460;13.322;2023-03-02T03:17:07;-0.50;99.90
7204;DHT22;3643;52.460;13.322;2023-03-02T03:19:41;-0.50;99.90
7204;DHT22;3643;52.460;13.322;2023-03-02T03:22:11;-0.50;99.90
7204;DHT22;3643;52.460;13.322;2023-03-02T03:24:41;-0.50;99.90
7204;DHT22;3643;52.460;13.322;2023-03-02T03:27:14;-0.60;99.90
7204;DHT22;3643;52.460;13.322;2023-03-02T03:29:44;-0.60;99.90
7204;DHT22;3643;52.460;13.322;2023-03-02T03:32:14;-0.60;99.90
7204;DHT22;3643;52.460;13.322;2023-03-02T03:34:44;-0.60;99.90
7204;DHT22;3643;52.460;13.322;2023-03-02T03:37:15;-0.60;99.90
7204;DHT22;3643;52.460;13.322;2023-03-02T03:39:45;-0.60;99.90
7204;DHT22;3643;52.460;13.322;2023-03-02T03:42:15;-0.70;99.90
7204;DHT22;3643;52.460;13.322;2023-03-02T03:44:43;-0.70;99.90
7204;DHT22;3643;52.460;13.322;2023-03-02T03:47:11;-0.70;99.90
7204;DHT22;3643;52.460;13.322;2023-03-02T03:49:40;-0.70;99.90
7204;DHT22;3643;52.460;13.322;2023-03-02T03:52:08;-0.80;99.90
7204;DHT22;3643;52.460;13.322;2023-03-02T03:54:36;-0.80;99.90
7204;DHT22;3643;52.460;13.322;2023-03-02T03:57:05;-0.80;99.90
7204;DHT22;3643;52.460;13.322;2023-03-02T03:59:35;-0.80;99.90
7204;DHT22;3643;52.460;13.322;2023-03-02T04:02:03;-0.80;99.90
7204;DHT22;3643;52.460;13.322;2023-03-02T04:04:33;-0.80;99.90
7204;DHT22;3643;52.460;13.322;2023-03-02T04:07:02;-0.80;99.90
7204;DHT22;3643;52.460;13.322;2023-03-02T04:09:30;-0.80;99.90
7204;DHT22;3643;52.460;13.322;2023-03-02T04:12:04;-0.80;99.90
7204;DHT22;3643;52.460;13.322;2023-03-02T04:14:35;-0.80;99.90
7204;DHT22;3643;52.460;13.322;2023-03-02T04:17:04;-0.80;99.90
7204;DHT22;3643;52.460;13.322;2023-03-02T04:19:34;-0.80;99.90
7204;DHT22;3643;52.460;13.322;2023-03-02T04:22:03;-0.80;99.90
7204;DHT22;3643;52.460;13.322;2023-03-02T04:24:31;-0.90;99.90
7204;DHT22;3643;52.460;13.322;2023-03-02T04:27:01;-0.90;99.90
7204;DHT22;3643;52.460;13.322;2023-03-02T04:29:29;-0.90;99.90
7204;DHT22;3643;52.460;13.322;2023-03-02T04:32:00;-1.00;99.90
7204;DHT22;3643;52.460;13.322;2023-03-02T04:34:29;-1.00;99.90
7204;DHT22;3643;52.460;13.322;2023-03-02T04:36:57;-1.00;99.90
7204;DHT22;3643;52.460;13.322;2023-03-02T04:39:31;-1.10;99.90
7204;DHT22;3643;52.460;13.322;2023-03-02T04:42:11;-1.10;99.90
7204;DHT22;3643;52.460;13.322;2023-03-02T04:44:40;-1.10;99.90
7204;DHT22;3643;52.460;13.322;2023-03-02T04:47:10;-1.10;99.90
7204;DHT22;3643;52.460;13.322;2023-03-02T04:49:39;-1.10;99.90
7204;DHT22;3643;52.460;13.322;2023-03-02T04:52:07;-1.10;99.90
7204;DHT22;3643;52.460;13.322;2023-03-02T04:54:36;-1.10;99.90
7204;DHT22;3643;52.460;13.322;2023-03-02T04:57:04;-1.10;99.90
7204;DHT22;3643;52.460;13.322;2023-03-02T04:59:37;-1.10;99.90
7204;DHT22;3643;52.460;13.322;2023-03-02T05:02:05;-1.10;99.90
7204;DHT22;3643;52.460;13.322;2023-03-02T05:04:35;-1.10;99.90
7204;DHT22;3643;52.460;13.322;2023-03-02T05:07:04;-1.10;99.90
7204;DHT22;3643;52.460;13.322;2023-03-02T05:09:32;-1.10;99.90
7204;DHT22;3643;52.460;13.322;2023-03-02T05:12:00;-1.00;99.90
7204;DHT22;3643;52.460;13.322;2023-03-02T05:14:29;-1.00;99.90
7204;DHT22;3643;52.460;13.322;2023-03-02T05:16:57;-1.00;99.90
7204;DHT22;3643;52.460;13.322;2023-03-02T05:19:25;-1.00;99.90
7204;DHT22;3643;52.460;13.322;2023-03-02T05:21:55;-1.00;99.90
7204;DHT22;3643;52.460;13.322;2023-03-02T05:24:23;-1.00;99.90
7204;DHT22;3643;52.460;13.322;2023-03-02T05:26:51;-0.90;99.90
7204;DHT22;3643;52.460;13.322;2023-03-02T05:29:19;-0.90;99.90
7204;DHT22;3643;52.460;13.322;2023-03-02T05:31:48;-0.90;99.90
7204;DHT22;3643;52.460;13.322;2023-03-02T05:34:17;-0.80;99.90
7204;DHT22;3643;52.460;13.322;2023-03-02T05:36:45;-0.70;99.90
7204;DHT22;3643;52.460;13.322;2023-03-02T05:39:15;-0.70;99.90
7204;DHT22;3643;52.460;13.322;2023-03-02T05:41:43;-0.60;99.90
7204;DHT22;3643;52.460;13.322;2023-03-02T05:44:11;-0.60;99.90
7204;DHT22;3643;52.460;13.322;2023-03-02T05:46:39;-0.50;99.90
7204;DHT22;3643;52.460;13.322;2023-03-02T05:49:07;-0.40;99.90
7204;DHT22;3643;52.460;13.322;2023-03-02T05:51:36;-0.40;99.90
7204;DHT22;3643;52.460;13.322;2023-03-02T05:54:04;-0.30;99.90
7204;DHT22;3643;52.460;13.322;2023-03-02T05:56:34;-0.40;99.90
7204;DHT22;3643;52.460;13.322;2023-03-02T05:59:02;-0.40;99.90
7204;DHT22;3643;52.460;13.322;2023-03-02T06:01:30;-0.40;99.90
7204;DHT22;3643;52.460;13.322;2023-03-02T06:03:58;-0.40;99.90
7204;DHT22;3643;52.460;13.322;2023-03-02T06:06:27;-0.40;99.90
7204;DHT22;3643;52.460;13.322;2023-03-02T06:08:55;-0.30;99.90
7204;DHT22;3643;52.460;13.322;2023-03-02T06:11:23;-0.40;99.90
7204;DHT22;3643;52.460;13.322;2023-03-02T06:13:52;-0.30;99.90
7204;DHT22;3643;52.460;13.322;2023-03-02T06:16:20;-0.30;99.90
7204;DHT22;3643;52.460;13.322;2023-03-02T06:18:49;-0.20;99.90
7204;DHT22;3643;52.460;13.322;2023-03-02T06:21:17;-0.10;99.90
7204;DHT22;3643;52.460;13.322;2023-03-02T06:23:45;0.00;99.90
7204;DHT22;3643;52.460;13.322;2023-03-02T06:26:13;0.00;99.90
7204;DHT22;3643;52.460;13.322;2023-03-02T06:28:41;0.10;99.90
7204;DHT22;3643;52.460;13.322;2023-03-02T06:31:20;0.20;99.90
7204;DHT22;3643;52.460;13.322;2023-03-02T06:33:48;0.30;99.90
7204;DHT22;3643;52.460;13.322;2023-03-02T06:36:16;0.40;99.90
7204;DHT22;3643;52.460;13.322;2023-03-02T06:38:45;0.40;99.90
7204;DHT22;3643;52.460;13.322;2023-03-02T06:41:13;0.40;99.90
7204;DHT22;3643;52.460;13.322;2023-03-02T06:43:41;0.60;99.90
7204;DHT22;3643;52.460;13.322;2023-03-02T06:46:09;0.80;99.90
7204;DHT22;3643;52.460;13.322;2023-03-02T06:48:39;1.40;99.90
7204;DHT22;3643;52.460;13.322;2023-03-02T06:51:07;2.50;99.90
7204;DHT22;3643;52.460;13.322;2023-03-02T06:53:36;2.70;99.90
7204;DHT22;3643;52.460;13.322;2023-03-02T06:56:05;3.80;99.90
7204;DHT22;3643;52.460;13.322;2023-03-02T06:58:34;4.90;99.90
7204;DHT22;3643;52.460;13.322;2023-03-02T07:01:02;5.50;99.90
7204;DHT22;3643;52.460;13.322;2023-03-02T07:03:30;5.70;99.90
7204;DHT22;3643;52.460;13.322;2023-03-02T07:06:00;5.90;99.90
7204;DHT22;3643;52.460;13.322;2023-03-02T07:08:28;7.10;99.90
7204;DHT22;3643;52.460;13.322;2023-03-02T07:10:56;7.80;99.90
7204;DHT22;3643;52.460;13.322;2023-03-02T07:13:25;8.60;99.90
7204;DHT22;3643;52.460;13.322;2023-03-02T07:15:53;8.90;99.90
7204;DHT22;3643;52.460;13.322;2023-03-02T07:18:21;8.30;99.90
7204;DHT22;3643;52.460;13.322;2023-03-02T07:20:49;8.30;99.90
7204;DHT22;3643;52.460;13.322;2023-03-02T07:23:19;8.70;99.90
7204;DHT22;3643;52.460;13.322;2023-03-02T07:25:47;8.70;99.90
7204;DHT22;3643;52.460;13.322;2023-03-02T07:28:15;9.30;99.90
7204;DHT22;3643;52.460;13.322;2023-03-02T07:30:44;9.80;99.90
7204;DHT22;3643;52.460;13.322;2023-03-02T07:33:12;10.10;99.80
7204;DHT22;3643;52.460;13.322;2023-03-02T07:35:40;9.20;99.80
7204;DHT22;3643;52.460;13.322;2023-03-02T07:38:08;7.50;99.90
7204;DHT22;3643;52.460;13.322;2023-03-02T07:40:40;6.40;99.90
7204;DHT22;3643;52.460;13.322;2023-03-02T07:43:09;5.50;99.90
7204;DHT22;3643;52.460;13.322;2023-03-02T07:45:37;4.70;99.90
7204;DHT22;3643;52.460;13.322;2023-03-02T07:48:06;4.00;99.90
7204;DHT22;3643;52.460;13.322;2023-03-02T07:50:34;3.10;99.90
7204;DHT22;3643;52.460;13.322;2023-03-02T07:53:02;2.90;99.90
7204;DHT22;3643;52.460;13.322;2023-03-02T07:55:30;2.40;99.90
7204;DHT22;3643;52.460;13.322;2023-03-02T07:58:00;2.00;99.90
7204;DHT22;3643;52.460;13.322;2023-03-02T08:00:28;2.00;99.90
7204;DHT22;3643;52.460;13.322;2023-03-02T08:02:56;1.90;99.90
7204;DHT22;3643;52.460;13.322;2023-03-02T08:05:25;2.00;99.90
7204;DHT22;3643;52.460;13.322;2023-03-02T08:07:53;1.90;99.90
7204;DHT22;3643;52.460;13.322;2023-03-02T08:10:21;1.90;99.90
7204;DHT22;3643;52.460;13.322;2023-03-02T08:12:49;1.90;99.90
7204;DHT22;3643;52.460;13.322;2023-03-02T08:15:19;1.90;99.90
7204;DHT22;3643;52.460;13.322;2023-03-02T08:17:47;1.90;99.90
7204;DHT22;3643;52.460;13.322;2023-03-02T08:20:15;1.80;99.90
7204;DHT22;3643;52.460;13.322;2023-03-02T08:22:43;1.80;99.90
7204;DHT22;3643;52.460;13.322;2023-03-02T08:25:12;1.70;99.90
7204;DHT22;3643;52.460;13.322;2023-03-02T08:27:40;1.60;99.90
7204;DHT22;3643;52.460;13.322;2023-03-02T08:30:09;1.60;99.90
7204;DHT22;3643;52.460;13.322;2023-03-02T08:32:39;1.60;99.90
7204;DHT22;3643;52.460;13.322;2023-03-02T08:35:08;1.70;99.90
7204;DHT22;3643;52.460;13.322;2023-03-02T08:37:36;1.70;99.90
7204;DHT22;3643;52.460;13.322;2023-03-02T08:40:06;2.00;99.90
7204;DHT22;3643;52.460;13.322;2023-03-02T08:42:34;1.50;99.90
7204;DHT22;3643;52.460;13.322;2023-03-02T08:45:03;1.30;99.90
7204;DHT22;3643;52.460;13.322;2023-03-02T08:47:31;1.30;99.90
7204;DHT22;3643;52.460;13.322;2023-03-02T08:50:01;0.40;99.90
7204;DHT22;3643;52.460;13.322;2023-03-02T08:52:31;1.60;99.90
7204;DHT22;3643;52.460;13.322;2023-03-02T08:54:59;1.60;99.90
7204;DHT22;3643;52.460;13.322;2023-03-02T08:57:29;1.70;99.90
7204;DHT22;3643;52.460;13.322;2023-03-02T08:59:58;1.70;99.90
7204;DHT22;3643;52.460;13.322;2023-03-02T09:02:26;1.70;99.90
7204;DHT22;3643;52.460;13.322;2023-03-02T09:04:54;1.80;99.90
7204;DHT22;3643;52.460;13.322;2023-03-02T09:07:24;1.80;99.90
7204;DHT22;3643;52.460;13.322;2023-03-02T09:09:52;1.80;99.90
7204;DHT22;3643;52.460;13.322;2023-03-02T09:12:20;1.70;99.90
7204;DHT22;3643;52.460;13.322;2023-03-02T09:14:48;1.70;99.90
7204;DHT22;3643;52.460;13.322;2023-03-02T09:17:16;1.80;99.90
7204;DHT22;3643;52.460;13.322;2023-03-02T09:19:44;1.60;99.90
7204;DHT22;3643;52.460;13.322;2023-03-02T09:22:12;1.60;99.90
7204;DHT22;3643;52.460;13.322;2023-03-02T09:24:42;1.70;99.90
7204;DHT22;3643;52.460;13.322;2023-03-02T09:27:10;1.70;99.90
7204;DHT22;3643;52.460;13.322;2023-03-02T09:29:38;1.70;99.90
7204;DHT22;3643;52.460;13.322;2023-03-02T09:32:06;1.80;99.90
7204;DHT22;3643;52.460;13.322;2023-03-02T09:34:35;2.10;99.90
7204;DHT22;3643;52.460;13.322;2023-03-02T09:37:03;2.00;99.90
7204;DHT22;3643;52.460;13.322;2023-03-02T09:39:31;2.10;99.90
7204;DHT22;3643;52.460;13.322;2023-03-02T09:42:21;2.10;99.90
7204;DHT22;3643;52.460;13.322;2023-03-02T09:45:20;2.30;99.90
7204;DHT22;3643;52.460;13.322;2023-03-02T09:47:58;2.30;99.90
7204;DHT22;3643;52.460;13.322;2023-03-02T09:50:33;2.40;99.90
7204;DHT22;3643;52.460;13.322;2023-03-02T09:53:25;2.40;99.90
7204;DHT22;3643;52.460;13.322;2023-03-02T09:55:56;2.50;99.90
7204;DHT22;3643;52.460;13.322;2023-03-02T09:58:32;2.70;99.90
7204;DHT22;3643;52.460;13.322;2023-03-02T10:01:05;2.70;99.90
7204;DHT22;3643;52.460;13.322;2023-03-02T10:03:39;2.70;99.90
7204;DHT22;3643;52.460;13.322;2023-03-02T10:06:12;2.60;99.90
7204;DHT22;3643;52.460;13.322;2023-03-02T10:08:40;2.70;99.90
7204;DHT22;3643;52.460;13.322;2023-03-02T10:11:15;2.70;99.90
7204;DHT22;3643;52.460;13.322;2023-03-02T10:13:49;2.90;99.90
7204;DHT22;3643;52.460;13.322;2023-03-02T10:16:27;2.90;99.90
7204;DHT22;3643;52.460;13.322;2023-03-02T10:19:05;3.00;99.90
7204;DHT22;3643;52.460;13.322;2023-03-02T10:21:38;3.00;99.90
7204;DHT22;3643;52.460;13.322;2023-03-02T10:24:15;3.10;99.90
7204;DHT22;3643;52.460;13.322;2023-03-02T10:26:51;3.00;99.90
7204;DHT22;3643;52.460;13.322;2023-03-02T10:29:35;2.90;99.90
7204;DHT22;3643;52.460;13.322;2023-03-02T10:32:16;2.90;99.90
7204;DHT22;3643;52.460;13.322;2023-03-02T10:34:45;3.00;99.90
7204;DHT22;3643;52.460;13.322;2023-03-02T10:37:18;3.30;99.90
7204;DHT22;3643;52.460;13.322;2023-03-02T10:39:47;3.00;99.90
7204;DHT22;3643;52.460;13.322;2023-03-02T10:42:18;3.10;99.90
7204;DHT22;3643;52.460;13.322;2023-03-02T10:44:50;3.00;99.90
7204;DHT22;3643;52.460;13.322;2023-03-02T10:47:22;3.10;99.90
7204;DHT22;3643;52.460;13.322;2023-03-02T10:49:51;3.10;99.90
7204;DHT22;3643;52.460;13.322;2023-03-02T10:52:21;3.20;99.90
7204;DHT22;3643;52.460;13.322;2023-03-02T10:55:01;3.30;99.90
7204;DHT22;3643;52.460;13.322;2023-03-02T10:57:34;3.30;99.90
7204;DHT22;3643;52.460;13.322;2023-03-02T11:00:15;3.30;99.90
7204;DHT22;3643;52.460;13.322;2023-03-02T11:02:51;3.30;99.90
7204;DHT22;3643;52.460;13.322;2023-03-02T11:05:31;3.40;99.90
7204;DHT22;3643;52.460;13.322;2023-03-02T11:08:01;3.40;99.90
7204;DHT22;3643;52.460;13.322;2023-03-02T11:10:32;3.40;99.90
7204;DHT22;3643;52.460;13.322;2023-03-02T11:13:14;3.40;99.90
7204;DHT22;3643;52.460;13.322;2023-03-02T11:15:46;3.40;99.90
7204;DHT22;3643;52.460;13.322;2023-03-02T11:18:23;3.40;99.90
7204;DHT22;3643;52.460;13.322;2023-03-02T11:20:54;3.30;99.90
7204;DHT22;3643;52.460;13.322;2023-03-02T11:23:32;3.30;99.90
7204;DHT22;3643;52.460;13.322;2023-03-02T11:26:06;3.20;99.90
7204;DHT22;3643;52.460;13.322;2023-03-02T11:28:44;3.30;99.90
7204;DHT22;3643;52.460;13.322;2023-03-02T11:31:24;3.40;99.90
7204;DHT22;3643;52.460;13.322;2023-03-02T11:34:04;3.50;99.90
7204;DHT22;3643;52.460;13.322;2023-03-02T11:36:48;3.50;99.90
7204;DHT22;3643;52.460;13.322;2023-03-02T11:39:24;3.50;99.90
7204;DHT22;3643;52.460;13.322;2023-03-02T11:41:52;4.00;99.90
7204;DHT22;3643;52.460;13.322;2023-03-02T11:44:21;3.60;99.90
7204;DHT22;3643;52.460;13.322;2023-03-02T11:46:59;3.60;99.90
7204;DHT22;3643;52.460;13.322;2023-03-02T11:49:36;3.60;99.90
7204;DHT22;3643;52.460;13.322;2023-03-02T11:52:07;3.60;99.90
7204;DHT22;3643;52.460;13.322;2023-03-02T11:54:44;3.70;99.90
7204;DHT22;3643;52.460;13.322;2023-03-02T11:57:20;3.80;99.90
7204;DHT22;3643;52.460;13.322;2023-03-02T11:59:50;3.80;99.90
7204;DHT22;3643;52.460;13.322;2023-03-02T12:02:25;3.80;99.90
7204;DHT22;3643;52.460;13.322;2023-03-02T12:05:05;3.80;99.90
7204;DHT22;3643;52.460;13.322;2023-03-02T12:07:33;3.80;99.90
7204;DHT22;3643;52.460;13.322;2023-03-02T12:10:05;3.80;99.90
7204;DHT22;3643;52.460;13.322;2023-03-02T12:12:41;3.90;99.90
7204;DHT22;3643;52.460;13.322;2023-03-02T12:15:36;4.00;99.90
7204;DHT22;3643;52.460;13.322;2023-03-02T12:18:43;4.00;99.90
7204;DHT22;3643;52.460;13.322;2023-03-02T12:21:14;4.00;99.90
7204;DHT22;3643;52.460;13.322;2023-03-02T12:23:57;4.00;99.90
7204;DHT22;3643;52.460;13.322;2023-03-02T12:26:33;4.00;99.90
7204;DHT22;3643;52.460;13.322;2023-03-02T12:29:06;4.10;99.90
7204;DHT22;3643;52.460;13.322;2023-03-02T12:31:43;4.10;99.90
7204;DHT22;3643;52.460;13.322;2023-03-02T12:34:32;4.10;99.90
7204;DHT22;3643;52.460;13.322;2023-03-02T12:37:06;4.10;99.90
7204;DHT22;3643;52.460;13.322;2023-03-02T12:40:10;4.20;99.90
7204;DHT22;3643;52.460;13.322;2023-03-02T12:42:51;4.20;99.90
7204;DHT22;3643;52.460;13.322;2023-03-02T12:45:36;4.30;99.90
7204;DHT22;3643;52.460;13.322;2023-03-02T12:48:22;4.30;99.90
7204;DHT22;3643;52.460;13.322;2023-03-02T12:50:55;4.30;99.90
7204;DHT22;3643;52.460;13.322;2023-03-02T12:53:27;4.30;99.90
7204;DHT22;3643;52.460;13.322;2023-03-02T12:55:55;4.40;99.90
7204;DHT22;3643;52.460;13.322;2023-03-02T12:58:26;4.40;99.90
7204;DHT22;3643;52.460;13.322;2023-03-02T13:00:56;4.40;99.90
7204;DHT22;3643;52.460;13.322;2023-03-02T13:03:26;4.60;99.90
7204;DHT22;3643;52.460;13.322;2023-03-02T13:06:01;4.40;99.90
7204;DHT22;3643;52.460;13.322;2023-03-02T13:08:31;4.50;99.90
7204;DHT22;3643;52.460;13.322;2023-03-02T13:11:01;4.40;99.90
7204;DHT22;3643;52.460;13.322;2023-03-02T13:13:35;4.40;99.90
7204;DHT22;3643;52.460;13.322;2023-03-02T13:16:16;4.50;99.90
7204;DHT22;3643;52.460;13.322;2023-03-02T13:18:45;4.70;99.90
7204;DHT22;3643;52.460;13.322;2023-03-02T13:21:18;4.90;99.90
7204;DHT22;3643;52.460;13.322;2023-03-02T13:23:49;4.60;99.90
7204;DHT22;3643;52.460;13.322;2023-03-02T13:26:25;4.70;99.90
7204;DHT22;3643;52.460;13.322;2023-03-02T13:29:02;4.70;99.90
7204;DHT22;3643;52.460;13.322;2023-03-02T13:31:31;4.80;99.90
7204;DHT22;3643;52.460;13.322;2023-03-02T13:34:00;4.90;99.90
7204;DHT22;3643;52.460;13.322;2023-03-02T13:36:34;4.80;99.90
7204;DHT22;3643;52.460;13.322;2023-03-02T13:39:05;4.80;99.90
7204;DHT22;3643;52.460;13.322;2023-03-02T13:41:35;4.90;99.90
7204;DHT22;3643;52.460;13.322;2023-03-02T13:44:17;4.90;99.90
7204;DHT22;3643;52.460;13.322;2023-03-02T13:46:46;5.00;99.90
7204;DHT22;3643;52.460;13.322;2023-03-02T13:49:25;4.90;99.90
7204;DHT22;3643;52.460;13.322;2023-03-02T13:52:01;5.00;99.90
7204;DHT22;3643;52.460;13.322;2023-03-02T13:54:34;5.00;99.90
7204;DHT22;3643;52.460;13.322;2023-03-02T13:57:03;5.00;99.90
7204;DHT22;3643;52.460;13.322;2023-03-02T13:59:33;5.00;99.90
7204;DHT22;3643;52.460;13.322;2023-03-02T14:02:13;4.90;99.90
7204;DHT22;3643;52.460;13.322;2023-03-02T14:04:46;4.90;99.90
7204;DHT22;3643;52.460;13.322;2023-03-02T14:07:16;4.90;99.90
7204;DHT22;3643;52.460;13.322;2023-03-02T14:09:45;5.10;99.90
7204;DHT22;3643;52.460;13.322;2023-03-02T14:12:21;5.00;99.90
7204;DHT22;3643;52.460;13.322;2023-03-02T14:14:52;4.90;99.90
7204;DHT22;3643;52.460;13.322;2023-03-02T14:17:24;4.90;99.90
7204;DHT22;3643;52.460;13.322;2023-03-02T14:19:52;4.90;99.90
7204;DHT22;3643;52.460;13.322;2023-03-02T14:22:24;4.80;99.90
7204;DHT22;3643;52.460;13.322;2023-03-02T14:24:55;4.90;99.90
7204;DHT22;3643;52.460;13.322;2023-03-02T14:27:26;4.90;99.90
7204;DHT22;3643;52.460;13.322;2023-03-02T14:29:57;4.90;99.90
7204;DHT22;3643;52.460;13.322;2023-03-02T14:32:26;4.80;99.90
7204;DHT22;3643;52.460;13.322;2023-03-02T14:34:55;4.80;99.90
7204;DHT22;3643;52.460;13.322;2023-03-02T14:37:27;4.80;99.90
7204;DHT22;3643;52.460;13.322;2023-03-02T14:39:56;4.80;99.90
7204;DHT22;3643;52.460;13.322;2023-03-02T14:42:25;4.70;99.90
7204;DHT22;3643;52.460;13.322;2023-03-02T14:44:53;4.80;99.90
7204;DHT22;3643;52.460;13.322;2023-03-02T14:47:22;4.70;99.90
7204;DHT22;3643;52.460;13.322;2023-03-02T14:49:50;4.70;99.90
7204;DHT22;3643;52.460;13.322;2023-03-02T14:52:22;4.70;99.90
7204;DHT22;3643;52.460;13.322;2023-03-02T14:54:58;4.60;99.90
7204;DHT22;3643;52.460;13.322;2023-03-02T14:57:30;4.50;99.90
7204;DHT22;3643;52.460;13.322;2023-03-02T15:00:00;4.50;99.90
7204;DHT22;3643;52.460;13.322;2023-03-02T15:02:29;4.40;99.90
7204;DHT22;3643;52.460;13.322;2023-03-02T15:04:58;4.40;99.90
7204;DHT22;3643;52.460;13.322;2023-03-02T15:07:27;4.30;99.90
7204;DHT22;3643;52.460;13.322;2023-03-02T15:09:57;4.30;99.90
7204;DHT22;3643;52.460;13.322;2023-03-02T15:12:25;4.10;99.90
7204;DHT22;3643;52.460;13.322;2023-03-02T15:14:54;4.00;99.90
7204;DHT22;3643;52.460;13.322;2023-03-02T15:17:22;3.90;99.90
7204;DHT22;3643;52.460;13.322;2023-03-02T15:19:51;3.80;99.90
7204;DHT22;3643;52.460;13.322;2023-03-02T15:22:19;3.80;99.90
7204;DHT22;3643;52.460;13.322;2023-03-02T15:24:48;3.70;99.90
7204;DHT22;3643;52.460;13.322;2023-03-02T15:27:18;3.70;99.90
7204;DHT22;3643;52.460;13.322;2023-03-02T15:29:49;3.70;99.90
7204;DHT22;3643;52.460;13.322;2023-03-02T15:32:17;3.60;99.90
7204;DHT22;3643;52.460;13.322;2023-03-02T15:34:46;3.60;99.90
7204;DHT22;3643;52.460;13.322;2023-03-02T15:37:15;3.50;99.90
7204;DHT22;3643;52.460;13.322;2023-03-02T15:39:44;3.40;99.90
7204;DHT22;3643;52.460;13.322;2023-03-02T15:42:12;3.30;99.90
7204;DHT22;3643;52.460;13.322;2023-03-02T15:44:42;3.20;99.90
7204;DHT22;3643;52.460;13.322;2023-03-02T15:47:11;3.20;99.90
7204;DHT22;3643;52.460;13.322;2023-03-02T15:49:39;3.10;99.90
7204;DHT22;3643;52.460;13.322;2023-03-02T15:52:09;3.00;99.90
7204;DHT22;3643;52.460;13.322;2023-03-02T15:54:38;3.10;99.90
7204;DHT22;3643;52.460;13.322;2023-03-02T15:57:07;3.10;99.90
7204;DHT22;3643;52.460;13.322;2023-03-02T15:59:36;3.00;99.90
7204;DHT22;3643;52.460;13.322;2023-03-02T16:02:06;2.90;99.90
7204;DHT22;3643;52.460;13.322;2023-03-02T16:04:35;2.80;99.90
7204;DHT22;3643;52.460;13.322;2023-03-02T16:07:03;2.70;99.90
7204;DHT22;3643;52.460;13.322;2023-03-02T16:09:32;2.60;99.90
7204;DHT22;3643;52.460;13.322;2023-03-02T16:12:00;2.60;99.90
7204;DHT22;3643;52.460;13.322;2023-03-02T16:14:29;2.50;99.90
7204;DHT22;3643;52.460;13.322;2023-03-02T16:16:57;2.40;99.90
7204;DHT22;3643;52.460;13.322;2023-03-02T16:19:27;2.40;99.90
7204;DHT22;3643;52.460;13.322;2023-03-02T16:21:55;2.30;99.90